Time;durP1;ratioP1;P1;durP2;ratioP2;P2;SDS_P1;SDS_P2;PMS_P1;PMS_P2;Temp;Humidity;BMP_temperature;BMP_pressure;BME280_temperature;BME280_humidity;BME280_pressure;Samples;Min_cycle;Max_cycle;Signal;HPM_P1;HPM_P2
2021/09/07 00:01:34;;;;;;;8.85;4.60;;;;;;;12.92;58.32;100771.41;4970128;28;105962;-65
2021/09/07 00:03:59;;;;;;;7.60;4.85;;;;;;;12.93;58.79;100763.19;4969525;28;106124;-64
2021/09/07 00:06:24;;;;;;;8.80;4.65;;;;;;;12.90;58.40;100765.38;4968932;28;105765;-65
2021/09/07 00:08:50;;;;;;;9.63;4.72;;;;;;;12.86;58.53;100756.84;4969070;28;105826;-65
2021/09/07 00:11:16;;;;;;;10.32;4.50;;;;;;;12.85;58.50;100755.19;4969886;28;106430;-65
2021/09/07 00:13:42;;;;;;;11.38;4.82;;;;;;;12.83;58.59;100755.34;4969182;28;106282;-66
2021/09/07 00:16:07;;;;;;;9.45;4.50;;;;;;;12.82;59.31;100750.19;4968995;28;105987;-64
2021/09/07 00:18:32;;;;;;;11.18;4.85;;;;;;;12.83;58.98;100747.31;4968807;28;108254;-64
2021/09/07 00:20:58;;;;;;;9.52;5.05;;;;;;;12.80;59.00;100745.00;4969914;28;105979;-65
2021/09/07 00:23:23;;;;;;;9.77;5.03;;;;;;;12.77;59.27;100756.06;4969197;28;106180;-65
2021/09/07 00:25:48;;;;;;;11.65;4.13;;;;;;;12.75;59.00;100743.84;4968884;28;105851;-65
2021/09/07 00:28:14;;;;;;;7.20;4.70;;;;;;;12.73;58.97;100761.91;4969174;28;105929;-65
2021/09/07 00:30:39;;;;;;;8.85;5.15;;;;;;;12.72;59.09;100755.72;4969853;28;106202;-65
2021/09/07 00:33:05;;;;;;;9.00;5.22;;;;;;;12.72;59.71;100753.03;4968089;28;106215;-65
2021/09/07 00:35:31;;;;;;;8.65;4.80;;;;;;;12.74;59.90;100751.06;4968847;28;106124;-64
2021/09/07 00:37:57;;;;;;;10.13;4.60;;;;;;;12.76;59.61;100748.22;4968126;28;106070;-66
2021/09/07 00:40:22;;;;;;;9.73;4.50;;;;;;;12.75;59.60;100752.69;4969334;28;105844;-66
2021/09/07 00:42:48;;;;;;;7.18;3.97;;;;;;;12.77;59.79;100752.56;4968187;28;106094;-67
2021/09/07 00:45:13;;;;;;;106.07;57.20;;;;;;;12.82;59.79;100747.50;4968161;28;107222;-67
2021/09/07 00:47:41;;;;;;;12.75;6.22;;;;;;;12.85;60.13;100749.84;4966868;28;106052;-66
2021/09/07 00:50:06;;;;;;;11.35;4.75;;;;;;;12.84;59.94;100746.34;4968941;28;106046;-65
2021/09/07 00:52:34;;;;;;;10.40;4.82;;;;;;;12.83;60.12;100747.31;4968630;28;106227;-65
2021/09/07 00:55:00;;;;;;;9.07;4.97;;;;;;;12.81;60.02;100744.00;4967830;28;105957;-64
2021/09/07 00:57:27;;;;;;;6.95;4.28;;;;;;;12.80;60.16;100742.34;4970282;28;106538;-64
2021/09/07 00:59:53;;;;;;;12.85;5.60;;;;;;;12.78;60.37;100733.66;4968732;28;105856;-65
2021/09/07 01:02:19;;;;;;;9.43;4.90;;;;;;;12.78;60.35;100728.31;4967651;28;106192;-64
2021/09/07 01:04:45;;;;;;;7.47;4.75;;;;;;;12.81;60.81;100724.47;4967833;28;105975;-64
2021/09/07 01:07:10;;;;;;;13.35;5.22;;;;;;;12.81;59.96;100727.97;4967668;28;107116;-64
2021/09/07 01:09:37;;;;;;;10.63;5.30;;;;;;;12.82;60.15;100728.78;4968462;28;106026;-65
2021/09/07 01:12:02;;;;;;;10.98;5.95;;;;;;;12.81;60.24;100729.81;4967650;28;106180;-64
2021/09/07 01:14:28;;;;;;;6.78;4.35;;;;;;;12.79;60.40;100727.28;4967426;28;106153;-65
2021/09/07 01:16:54;;;;;;;9.48;4.82;;;;;;;12.81;60.40;100732.50;4968023;28;106080;-65
2021/09/07 01:19:19;;;;;;;8.93;4.60;;;;;;;12.80;60.46;100728.97;4968799;28;105990;-65
2021/09/07 01:21:44;;;;;;;8.85;5.50;;;;;;;12.82;60.54;100729.63;4970733;28;106262;-65
2021/09/07 01:24:10;;;;;;;12.10;4.78;;;;;;;12.83;61.18;100722.44;4971196;28;106322;-65
2021/09/07 01:26:35;;;;;;;10.65;5.50;;;;;;;12.84;61.48;100716.91;4970702;28;106345;-65
2021/09/07 01:29:00;;;;;;;10.65;4.88;;;;;;;12.80;61.10;100717.44;4972178;28;105994;-65
2021/09/07 01:31:26;;;;;;;7.78;4.50;;;;;;;12.71;60.85;100713.94;4971253;28;105957;-65
2021/09/07 01:33:51;;;;;;;8.15;4.82;;;;;;;12.66;61.13;100719.00;4970350;28;106990;-65
2021/09/07 01:36:16;;;;;;;9.02;5.22;;;;;;;12.65;61.40;100714.66;4970609;28;105709;-65
2021/09/07 01:38:42;;;;;;;12.57;5.93;;;;;;;12.59;60.99;100715.31;4971826;28;105940;-65
2021/09/07 01:41:08;;;;;;;8.50;5.60;;;;;;;12.53;61.56;100727.53;4971014;28;105849;-65
2021/09/07 01:43:33;;;;;;;9.80;5.07;;;;;;;12.47;61.65;100726.38;4970447;28;105887;-65
2021/09/07 01:45:58;;;;;;;8.85;5.40;;;;;;;12.42;62.02;100726.03;4970930;28;105903;-65
2021/09/07 01:48:25;;;;;;;9.02;5.03;;;;;;;12.41;62.50;100726.22;4971491;28;105808;-65
2021/09/07 01:50:51;;;;;;;12.88;5.53;;;;;;;12.43;62.61;100730.38;4969640;28;106043;-65
2021/09/07 01:53:18;;;;;;;10.73;5.32;;;;;;;12.45;62.53;100728.38;4970766;28;106013;-65
2021/09/07 01:55:43;;;;;;;10.30;5.75;;;;;;;12.46;62.06;100724.69;4970681;28;105879;-65
2021/09/07 01:58:09;;;;;;;11.98;5.50;;;;;;;12.45;62.62;100731.06;4971429;28;106054;-65
2021/09/07 02:00:35;;;;;;;11.75;5.95;;;;;;;12.45;62.83;100728.38;4970637;28;106397;-65
2021/09/07 02:03:00;;;;;;;8.05;4.88;;;;;;;12.49;62.83;100724.38;4970577;28;105923;-64
2021/09/07 02:05:25;;;;;;;9.35;5.22;;;;;;;12.55;63.07;100724.69;4970601;28;106057;-65
2021/09/07 02:07:51;;;;;;;9.70;4.93;;;;;;;12.60;63.30;100715.16;4971156;28;106044;-65
2021/09/07 02:10:17;;;;;;;11.23;4.85;;;;;;;12.66;63.27;100724.34;4970879;28;105840;-65
2021/09/07 02:12:42;;;;;;;9.75;4.80;;;;;;;12.71;63.05;100721.97;4970401;28;107100;-65
2021/09/07 02:15:09;;;;;;;9.38;5.53;;;;;;;12.78;63.42;100719.44;4970133;28;106018;-65
2021/09/07 02:17:37;;;;;;;10.85;5.57;;;;;;;12.83;63.51;100720.59;4971392;28;105890;-64
2021/09/07 02:20:03;;;;;;;13.32;5.78;;;;;;;12.89;63.13;100718.25;4969879;28;106278;-65
2021/09/07 02:22:28;;;;;;;10.18;5.00;;;;;;;12.90;62.82;100714.56;4970160;28;106457;-65
2021/09/07 02:24:54;;;;;;;8.32;5.00;;;;;;;12.90;62.94;100715.38;4969403;28;106132;-65
2021/09/07 02:27:19;;;;;;;10.20;5.18;;;;;;;12.90;62.93;100715.38;4971051;28;106125;-65
2021/09/07 02:29:45;;;;;;;11.60;5.63;;;;;;;12.90;62.90;100710.03;4970290;28;106141;-65
2021/09/07 02:32:11;;;;;;;12.55;5.40;;;;;;;12.92;62.73;100712.56;4970033;28;105930;-65
2021/09/07 02:34:36;;;;;;;9.52;4.60;;;;;;;12.92;63.35;100712.56;4969080;28;106424;-64
2021/09/07 02:37:02;;;;;;;10.02;5.25;;;;;;;12.90;63.23;100703.88;4970363;28;106035;-65
2021/09/07 02:39:27;;;;;;;9.13;4.60;;;;;;;12.89;63.12;100708.41;4969416;28;105763;-65
2021/09/07 02:41:53;;;;;;;9.18;5.07;;;;;;;12.88;63.42;100693.34;4970173;28;105779;-64
2021/09/07 02:44:19;;;;;;;20.33;5.35;;;;;;;12.87;63.36;100699.69;4969824;28;105936;-65
2021/09/07 02:46:46;;;;;;;12.82;5.70;;;;;;;12.83;63.32;100696.53;4970521;28;105931;-65
2021/09/07 02:49:12;;;;;;;12.25;5.25;;;;;;;12.81;63.71;100698.56;4969626;28;106368;-64
2021/09/07 02:51:37;;;;;;;8.25;5.50;;;;;;;12.77;63.24;100691.88;4969300;28;106058;-64
2021/09/07 02:54:03;;;;;;;11.57;5.57;;;;;;;12.74;63.67;100694.06;4969529;28;106809;-64
2021/09/07 02:56:28;;;;;;;8.90;5.35;;;;;;;12.73;63.92;100687.88;4970148;28;106586;-65
2021/09/07 02:58:54;;;;;;;9.93;6.13;;;;;;;12.72;64.01;100691.56;4969848;28;106168;-65
2021/09/07 03:01:19;;;;;;;8.95;5.05;;;;;;;12.70;64.03;100693.59;4969155;28;105848;-65
2021/09/07 03:03:44;;;;;;;10.07;4.88;;;;;;;12.70;64.47;100693.59;4969123;28;106373;-64
2021/09/07 03:06:10;;;;;;;11.43;5.25;;;;;;;12.68;64.29;100693.75;4969545;28;105897;-64
2021/09/07 03:08:35;;;;;;;12.55;4.97;;;;;;;12.68;64.66;100690.25;4969504;28;105947;-63
2021/09/07 03:11:01;;;;;;;8.85;5.15;;;;;;;12.69;64.41;100691.91;4969098;28;106124;-64
2021/09/07 03:13:27;;;;;;;12.45;5.18;;;;;;;12.66;64.53;100693.09;4968863;28;105847;-65
2021/09/07 03:15:52;;;;;;;13.52;6.53;;;;;;;12.66;64.90;100693.09;4969957;28;106162;-64
2021/09/07 03:18:17;;;;;;;15.23;5.32;;;;;;;12.66;64.60;100692.25;4969101;28;105789;-64
2021/09/07 03:20:43;;;;;;;29.20;6.53;;;;;;;12.66;64.45;100678.91;4968194;28;105973;-64
2021/09/07 03:23:08;;;;;;;11.60;5.63;;;;;;;12.67;65.07;100691.22;4968618;28;105944;-64
2021/09/07 03:25:33;;;;;;;9.73;5.15;;;;;;;12.65;64.67;100688.75;4969026;28;105832;-64
2021/09/07 03:27:59;;;;;;;14.55;5.80;;;;;;;12.65;65.00;100687.91;4969207;28;106105;-64
2021/09/07 03:30:25;;;;;;;14.23;5.75;;;;;;;12.66;64.94;100684.25;4968956;28;106025;-65
2021/09/07 03:32:51;;;;;;;10.70;5.53;;;;;;;12.66;65.52;100686.91;4968516;28;106002;-65
2021/09/07 03:35:17;;;;;;;13.40;6.38;;;;;;;12.68;64.99;100684.91;4968692;28;106044;-66
2021/09/07 03:37:43;;;;;;;16.17;5.50;;;;;;;12.69;64.95;100686.56;4968592;28;105919;-65
2021/09/07 03:40:10;;;;;;;12.38;4.95;;;;;;;12.70;65.11;100691.75;4968935;28;105971;-65
2021/09/07 03:42:36;;;;;;;11.57;5.88;;;;;;;12.69;65.71;100692.72;4968626;28;106584;-65
2021/09/07 03:45:03;;;;;;;16.60;6.10;;;;;;;12.66;65.72;100687.75;4969411;28;106065;-65
2021/09/07 03:47:29;;;;;;;14.57;5.97;;;;;;;12.64;65.72;100695.13;4968313;28;106346;-65
2021/09/07 03:49:54;;;;;;;20.23;6.97;;;;;;;12.63;65.51;100697.94;4968129;28;106137;-64
2021/09/07 03:52:19;;;;;;;15.77;5.97;;;;;;;12.62;65.89;100694.44;4968207;28;106069;-65
2021/09/07 03:54:45;;;;;;;12.77;5.95;;;;;;;12.64;66.20;100696.94;4968877;28;106103;-65
2021/09/07 03:57:10;;;;;;;12.23;5.70;;;;;;;12.65;65.85;100694.09;4968359;28;106271;-65
2021/09/07 03:59:36;;;;;;;14.52;6.15;;;;;;;12.66;66.07;100700.28;4968571;28;106060;-66
2021/09/07 04:45:08;;;;;;;17.02;7.38;;;;;;;11.66;65.77;100728.00;5045205;27;106018;-64
2021/09/07 04:47:34;;;;;;;14.27;7.35;;;;;;;11.69;66.68;100717.00;5045472;27;106507;-64
2021/09/07 04:49:59;;;;;;;15.13;6.88;;;;;;;11.76;66.53;100725.19;5042435;27;106188;-64
2021/09/07 04:52:24;;;;;;;17.70;7.55;;;;;;;11.83;67.28;100727.00;5042756;27;106443;-64
2021/09/07 04:54:50;;;;;;;12.90;7.82;;;;;;;11.95;67.46;100726.75;5042844;27;109970;-65
2021/09/07 04:57:15;;;;;;;18.85;8.15;;;;;;;12.06;67.29;100734.41;5043304;27;106091;-64
2021/09/07 04:59:41;;;;;;;12.77;6.55;;;;;;;12.15;67.71;100728.06;5043015;27;106744;-64
2021/09/07 05:02:06;;;;;;;12.18;6.55;;;;;;;12.26;68.06;100739.41;5043091;27;107266;-64
2021/09/07 05:04:32;;;;;;;10.65;6.53;;;;;;;12.35;67.58;100733.88;5043525;27;106210;-64
2021/09/07 05:06:57;;;;;;;12.60;5.95;;;;;;;12.46;67.54;100746.06;5045409;27;106491;-65
2021/09/07 05:09:22;;;;;;;18.92;8.88;;;;;;;12.57;67.76;100731.53;5044212;27;106083;-65
2021/09/07 05:11:48;;;;;;;18.75;7.88;;;;;;;12.72;67.77;100739.69;5044808;27;106659;-65
2021/09/07 05:14:13;;;;;;;10.65;6.47;;;;;;;12.83;67.83;100736.63;5044518;27;106126;-65
2021/09/07 05:16:38;;;;;;;14.27;5.88;;;;;;;12.92;67.58;100741.97;5045931;27;105928;-65
2021/09/07 05:19:04;;;;;;;20.90;7.95;;;;;;;12.98;67.71;100730.59;5042691;27;106172;-65
2021/09/07 05:21:29;;;;;;;11.15;6.47;;;;;;;13.02;67.17;100734.56;5024648;28;105950;-65
2021/09/07 05:23:54;;;;;;;11.45;5.95;;;;;;;13.02;67.53;100740.75;5024791;27;106179;-65
2021/09/07 05:26:20;;;;;;;10.82;6.30;;;;;;;13.03;67.45;100741.59;5025218;27;105836;-66
2021/09/07 05:28:45;;;;;;;14.52;6.13;;;;;;;12.99;66.92;100740.28;5040263;27;106265;-66
2021/09/07 05:31:10;;;;;;;12.55;6.80;;;;;;;12.97;67.30;100739.59;5044680;27;107528;-65
2021/09/07 05:33:36;;;;;;;12.38;6.55;;;;;;;12.96;67.23;100740.63;5044816;27;107861;-65
2021/09/07 05:36:01;;;;;;;8.82;5.70;;;;;;;12.99;67.30;100741.09;5045405;27;106028;-65
2021/09/07 05:38:27;;;;;;;10.70;6.72;;;;;;;13.01;67.20;100733.75;5044727;27;105898;-65
2021/09/07 05:40:53;;;;;;;9.90;5.75;;;;;;;13.09;67.88;100735.53;5044598;27;107460;-66
2021/09/07 05:43:18;;;;;;;9.90;6.25;;;;;;;13.19;68.09;100736.19;5043933;27;106291;-65
2021/09/07 05:45:44;;;;;;;11.95;6.70;;;;;;;13.34;68.28;100740.78;5045225;27;105904;-65
2021/09/07 05:48:09;;;;;;;15.23;6.75;;;;;;;13.51;67.82;100738.91;5044771;27;106009;-65
2021/09/07 05:50:34;;;;;;;19.20;7.72;;;;;;;13.69;67.83;100741.31;5043871;27;106015;-64
2021/09/07 05:53:00;;;;;;;12.77;7.55;;;;;;;13.81;67.78;100749.75;5043971;27;106949;-64
2021/09/07 05:55:26;;;;;;;18.02;6.82;;;;;;;13.94;67.48;100746.47;5037190;27;106382;-64
2021/09/07 05:57:53;;;;;;;23.92;8.55;;;;;;;14.12;68.06;100749.69;5030829;27;105862;-64
2021/09/07 06:00:19;;;;;;;30.33;9.32;;;;;;;14.34;67.94;100752.53;5030687;28;107207;-65
2021/09/07 06:02:45;;;;;;;20.50;8.70;;;;;;;14.54;67.52;100752.84;5030189;28;105957;-65
2021/09/07 06:05:11;;;;;;;19.50;7.78;;;;;;;14.69;67.59;100752.88;5031169;27;105942;-65
2021/09/07 06:07:37;;;;;;;20.83;7.32;;;;;;;14.86;67.38;100759.75;5030647;28;106088;-65
2021/09/07 06:10:02;;;;;;;16.67;8.15;;;;;;;15.04;67.01;100758.56;5030516;28;106141;-65
2021/09/07 06:12:28;;;;;;;17.30;7.53;;;;;;;15.31;67.42;100762.41;5030348;28;105827;-65
2021/09/07 06:14:53;;;;;;;31.17;13.48;;;;;;;15.51;67.00;100764.50;5031017;28;105794;-65
2021/09/07 06:17:18;;;;;;;66.40;37.50;;;;;;;15.70;66.35;100755.00;5029548;27;106209;-64
2021/09/07 06:19:44;;;;;;;64.18;38.03;;;;;;;15.99;66.35;100753.25;5029351;27;106738;-65
2021/09/07 06:22:09;;;;;;;50.08;29.25;;;;;;;16.30;66.43;100765.53;5029664;27;106081;-65
2021/09/07 06:24:34;;;;;;;35.88;20.92;;;;;;;16.61;65.69;100750.84;5030499;27;105901;-66
2021/09/07 06:27:00;;;;;;;35.70;20.50;;;;;;;17.02;65.72;100768.97;5029981;27;105883;-64
2021/09/07 06:29:25;;;;;;;34.50;17.83;;;;;;;17.37;65.41;100758.97;5028926;27;106627;-65
2021/09/07 06:31:51;;;;;;;30.27;16.13;;;;;;;17.67;64.71;100764.03;5029626;27;105901;-65
2021/09/07 06:34:16;;;;;;;25.65;10.68;;;;;;;18.07;64.46;100768.69;5030094;28;106620;-65
2021/09/07 06:36:42;;;;;;;16.77;9.15;;;;;;;18.41;63.43;100759.59;5029298;27;106429;-66
2021/09/07 06:39:07;;;;;;;15.52;8.90;;;;;;;18.62;62.47;100763.09;5029141;27;106972;-65
2021/09/07 06:41:32;;;;;;;13.00;8.73;;;;;;;18.79;62.06;100763.47;5028988;27;106037;-65
2021/09/07 06:43:58;;;;;;;16.67;9.93;;;;;;;18.91;61.15;100763.72;5029953;27;106255;-65
2021/09/07 06:46:23;;;;;;;14.13;8.93;;;;;;;18.97;60.96;100767.44;5029404;27;106123;-65
2021/09/07 06:48:48;;;;;;;14.32;9.40;;;;;;;19.14;60.67;100765.09;5028944;27;111817;-65
2021/09/07 06:51:14;;;;;;;13.65;9.77;;;;;;;19.35;60.65;100772.09;5029074;27;105998;-65
2021/09/07 06:53:39;;;;;;;24.50;12.15;;;;;;;19.51;60.14;100774.28;5030213;27;105900;-65
2021/09/07 06:56:04;;;;;;;15.55;9.25;;;;;;;19.66;59.37;100775.91;5028548;27;106433;-65
2021/09/07 06:58:30;;;;;;;18.90;9.38;;;;;;;19.77;58.92;100780.59;5029043;28;106335;-65
2021/09/07 07:00:55;;;;;;;18.83;9.77;;;;;;;19.87;58.58;100786.38;5028456;27;105985;-65
2021/09/07 07:03:20;;;;;;;15.35;10.02;;;;;;;20.06;58.53;100783.78;5030620;27;105933;-65
2021/09/07 07:05:46;;;;;;;15.27;9.00;;;;;;;20.28;58.48;100786.94;5029100;27;106091;-65
2021/09/07 07:08:11;;;;;;;14.73;8.95;;;;;;;20.54;57.81;100791.28;5028776;27;106634;-65
2021/09/07 07:10:37;;;;;;;15.32;9.93;;;;;;;20.78;56.98;100788.84;5029367;27;105929;-66
2021/09/07 07:13:03;;;;;;;15.70;9.43;;;;;;;20.98;56.55;100787.78;5030480;27;105807;-65
2021/09/07 07:15:28;;;;;;;15.13;9.63;;;;;;;21.16;56.07;100789.69;5029470;27;106209;-65
2021/09/07 07:17:54;;;;;;;18.05;10.18;;;;;;;21.29;55.42;100790.34;5029729;27;105925;-65
2021/09/07 07:20:19;;;;;;;15.75;8.60;;;;;;;21.42;55.04;100788.53;5029117;28;105876;-65
2021/09/07 07:22:45;;;;;;;15.93;10.07;;;;;;;21.46;53.98;100797.88;5030658;27;106038;-65
2021/09/07 07:25:11;;;;;;;12.75;9.15;;;;;;;21.43;53.77;100787.47;5028982;27;106009;-65
2021/09/07 07:27:41;;;;;;;13.30;9.48;;;;;;;21.52;53.49;100798.84;5029405;28;105940;-65
2021/09/07 07:30:08;;;;;;;16.85;10.57;;;;;;;21.56;53.19;100792.75;5027825;28;105908;-65
2021/09/07 07:32:33;;;;;;;16.63;9.27;;;;;;;21.64;53.17;100800.56;5029137;27;105827;-65
2021/09/07 07:34:59;;;;;;;16.85;10.10;;;;;;;21.73;52.36;100797.56;5029320;28;106127;-64
2021/09/07 07:37:24;;;;;;;18.88;10.18;;;;;;;21.80;52.11;100803.69;5028086;28;106071;-64
2021/09/07 07:39:50;;;;;;;17.75;10.65;;;;;;;21.94;51.78;100807.88;5027940;27;106017;-64
2021/09/07 07:42:15;;;;;;;14.10;9.95;;;;;;;22.03;51.77;100808.38;5028653;27;105973;-64
2021/09/07 07:44:40;;;;;;;18.75;10.38;;;;;;;22.09;51.23;100812.88;5027389;28;106239;-63
2021/09/07 07:47:06;;;;;;;16.13;9.38;;;;;;;21.95;50.45;100812.25;5027899;28;106100;-64
2021/09/07 07:49:31;;;;;;;16.02;9.77;;;;;;;21.96;50.93;100808.47;5028558;27;106119;-64
2021/09/07 07:51:56;;;;;;;20.08;9.48;;;;;;;22.17;50.96;100817.16;5029089;28;106499;-64
2021/09/07 07:54:22;;;;;;;16.50;9.95;;;;;;;22.51;50.78;100814.75;5028435;27;106268;-64
2021/09/07 07:56:47;;;;;;;13.05;9.02;;;;;;;22.81;49.86;100819.25;5028863;27;106611;-64
2021/09/07 07:59:12;;;;;;;14.95;9.35;;;;;;;23.03;49.38;100815.94;5028632;27;106107;-63
2021/09/07 08:01:38;;;;;;;13.77;8.80;;;;;;;23.09;49.04;100820.44;5029731;27;105981;-62
2021/09/07 08:04:03;;;;;;;13.43;9.00;;;;;;;23.01;48.57;100818.91;5028921;27;106289;-62
2021/09/07 08:06:29;;;;;;;11.55;8.25;;;;;;;22.83;48.05;100822.59;5027086;27;105964;-62
2021/09/07 08:08:54;;;;;;;12.77;8.60;;;;;;;22.67;48.37;100824.09;5028399;27;105889;-64
2021/09/07 08:11:19;;;;;;;18.15;9.40;;;;;;;22.69;48.38;100826.56;5029544;27;106325;-64
2021/09/07 08:13:45;;;;;;;13.98;9.38;;;;;;;22.80;48.44;100818.44;5027966;27;106222;-64
2021/09/07 08:16:10;;;;;;;15.20;11.02;;;;;;;22.97;48.09;100828.59;5027912;27;105806;-64
2021/09/07 08:18:36;;;;;;;16.02;8.80;;;;;;;23.18;47.71;100818.19;5027631;27;105807;-64
2021/09/07 08:21:02;;;;;;;15.10;8.82;;;;;;;23.50;47.33;100821.31;5029035;28;106047;-63
2021/09/07 08:23:27;;;;;;;13.63;8.80;;;;;;;23.75;47.05;100820.97;5025025;28;107113;-63
2021/09/07 08:25:53;;;;;;;15.27;8.57;;;;;;;24.03;46.15;100823.97;5027873;27;106541;-64
2021/09/07 08:28:18;;;;;;;14.25;8.57;;;;;;;24.27;46.14;100830.94;5028249;27;106217;-63
2021/09/07 08:30:44;;;;;;;11.98;8.43;;;;;;;24.46;45.94;100833.41;5029203;27;106361;-64
2021/09/07 08:33:14;;;;;;;13.68;8.18;;;;;;;24.79;45.29;100837.22;5028763;27;106112;-64
2021/09/07 08:35:41;;;;;;;17.35;13.57;;;;;;;25.23;44.75;100828.31;5028432;27;105991;-64
2021/09/07 08:38:06;;;;;;;50.22;37.42;;;;;;;25.55;43.83;100836.66;5027471;28;106215;-65
2021/09/07 08:40:32;;;;;;;12.65;8.45;;;;;;;25.81;42.81;100831.47;5028542;27;106056;-63
2021/09/07 08:42:57;;;;;;;16.73;7.90;;;;;;;26.00;42.31;100840.13;5027149;27;105918;-65
2021/09/07 08:45:23;;;;;;;12.60;8.95;;;;;;;26.11;41.37;100843.81;5027146;27;106341;-63
2021/09/07 08:47:49;;;;;;;15.00;7.32;;;;;;;26.48;41.36;100841.13;5027298;28;105999;-64
2021/09/07 08:50:15;;;;;;;14.70;8.70;;;;;;;26.73;40.04;100841.63;5029278;27;105838;-64
2021/09/07 08:52:41;;;;;;;13.95;8.48;;;;;;;27.38;39.69;100846.91;5027578;27;106158;-63
2021/09/07 08:55:07;;;;;;;10.85;7.78;;;;;;;28.62;38.76;100843.31;5026515;28;106255;-64
2021/09/07 08:57:32;;;;;;;11.25;8.32;;;;;;;30.65;36.72;100839.38;5026607;27;106259;-64
2021/09/07 09:00:04;;;;;;;13.65;7.88;;;;;;;32.64;32.60;100844.41;5027645;27;105952;-64
2021/09/07 09:02:29;;;;;;;10.13;7.30;;;;;;;32.87;30.49;100843.44;5023352;28;106106;-64
2021/09/07 09:04:57;;;;;;;11.75;8.10;;;;;;;33.84;30.32;100848.09;5026851;28;105846;-63
2021/09/07 09:07:28;;;;;;;11.98;7.65;;;;;;;36.15;27.28;100859.50;5026432;28;106093;-63
2021/09/07 09:09:56;;;;;;;12.02;8.20;;;;;;;36.87;25.63;100850.72;5024226;28;105916;-64
2021/09/07 09:12:36;;;;;;;13.15;7.93;;;;;;;37.13;24.66;100852.53;5026852;28;106248;-64
2021/09/07 09:15:11;;;;;;;13.43;8.23;;;;;;;38.12;23.39;100858.75;5022319;28;107093;-64
2021/09/07 09:17:36;;;;;;;14.07;7.82;;;;;;;38.96;22.03;100852.94;5024478;28;106372;-64
2021/09/07 09:20:16;;;;;;;12.40;7.43;;;;;;;40.66;20.66;100852.34;5026750;27;106885;-64
2021/09/07 09:22:52;;;;;;;12.70;7.60;;;;;;;40.45;20.26;100858.97;5026508;28;106715;-63
2021/09/07 09:25:20;;;;;;;12.13;7.80;;;;;;;40.25;20.27;100860.81;5024944;28;105915;-62
2021/09/07 09:27:47;;;;;;;11.90;7.63;;;;;;;40.57;19.41;100863.66;5026445;27;105752;-66
2021/09/07 09:30:13;;;;;;;11.20;7.63;;;;;;;40.00;20.08;100855.31;5025792;27;105843;-65
2021/09/07 09:32:47;;;;;;;11.85;7.65;;;;;;;40.68;19.54;100867.56;5030849;27;106225;-64
2021/09/07 09:35:13;;;;;;;11.25;8.30;;;;;;;43.18;17.79;100856.69;5028013;28;106594;-65
2021/09/07 09:37:53;;;;;;;10.65;8.20;;;;;;;45.18;16.25;100855.63;5030240;28;106129;-64
2021/09/07 09:40:19;;;;;;;8.45;7.18;;;;;;;46.18;15.37;100851.63;5030139;28;106080;-64
2021/09/07 09:42:44;;;;;;;13.32;7.30;;;;;;;45.71;15.25;100859.94;5030115;27;106426;-65
2021/09/07 09:45:09;;;;;;;10.98;7.75;;;;;;;44.38;15.96;100852.16;5029451;27;106511;-65
2021/09/07 09:47:51;;;;;;;11.45;8.10;;;;;;;42.75;16.65;100852.00;5029542;27;106098;-63
2021/09/07 09:50:18;;;;;;;10.90;7.68;;;;;;;42.39;17.19;100858.94;5029425;28;106445;-63
2021/09/07 09:52:45;;;;;;;9.93;7.55;;;;;;;40.99;18.03;100863.16;5028424;28;106236;-62
2021/09/07 09:55:13;;;;;;;11.30;7.15;;;;;;;39.18;19.10;100853.63;5029652;28;106020;-63
2021/09/07 09:57:39;;;;;;;10.68;7.85;;;;;;;37.67;20.64;100854.69;5029660;27;108243;-64
2021/09/07 10:00:07;;;;;;;10.43;7.53;;;;;;;36.60;21.61;100858.28;5030375;28;106244;-63
2021/09/07 10:02:32;;;;;;;11.57;8.05;;;;;;;37.25;21.32;100845.13;5028018;28;106266;-63
2021/09/07 10:04:59;;;;;;;8.57;7.15;;;;;;;36.86;21.09;100849.88;5030267;27;106741;-62
2021/09/07 10:07:28;;;;;;;10.40;7.13;;;;;;;36.16;21.36;100849.22;5029396;28;106198;-62
2021/09/07 10:09:56;;;;;;;12.50;7.72;;;;;;;35.58;21.68;100844.63;5030319;27;105824;-62
2021/09/07 10:12:52;;;;;;;13.73;8.20;;;;;;;34.92;22.33;100847.38;5029768;27;106042;-63
2021/09/07 10:15:40;;;;;;;11.43;8.10;;;;;;;34.27;23.55;100843.22;5029807;27;106014;-62
2021/09/07 10:26:17;;;;;;;10.80;7.28;;;;;;;31.99;25.17;100841.31;5026406;27;106349;-60
2021/09/07 20:37:46;;;;;;;24.92;14.82;;;;;;;15.21;63.54;100843.22;5007630;28;105851;-63
2021/09/07 20:40:12;;;;;;;24.42;14.68;;;;;;;15.19;64.13;100845.25;5005733;28;105900;-62
2021/09/07 20:42:39;;;;;;;25.80;15.20;;;;;;;15.22;64.42;100841.38;5004694;28;106237;-63
2021/09/07 20:45:06;;;;;;;25.50;14.68;;;;;;;15.25;64.88;100845.53;5004529;28;106167;-63
2021/09/07 20:47:31;;;;;;;30.05;17.08;;;;;;;15.28;65.44;100847.84;5004710;28;106643;-62
2021/09/07 20:49:57;;;;;;;23.75;15.88;;;;;;;15.29;65.75;100849.50;5004330;28;105927;-63
2021/09/07 20:52:22;;;;;;;24.13;14.43;;;;;;;15.33;66.11;100851.63;5004635;28;106166;-62
2021/09/07 20:54:52;;;;;;;23.83;15.25;;;;;;;15.36;66.09;100855.78;5004623;28;106029;-62
2021/09/07 20:57:17;;;;;;;27.60;14.88;;;;;;;15.38;66.55;100854.59;5004047;28;105834;-64
2021/09/07 20:59:42;;;;;;;23.38;14.85;;;;;;;15.40;66.59;100862.47;5003743;28;107030;-63
2021/09/07 21:02:08;;;;;;;23.77;15.45;;;;;;;15.42;66.83;100859.59;5004732;28;106338;-63
2021/09/07 21:04:33;;;;;;;27.75;15.60;;;;;;;15.42;67.07;100857.75;5003907;28;114059;-63
2021/09/07 21:06:58;;;;;;;25.42;15.43;;;;;;;15.42;66.82;100859.59;5003894;28;107502;-62
2021/09/07 21:09:24;;;;;;;27.15;15.88;;;;;;;15.42;67.28;100852.38;5005053;28;105826;-62
2021/09/07 21:11:49;;;;;;;22.70;15.30;;;;;;;15.44;67.19;100852.19;5004326;28;106108;-63
2021/09/07 21:14:14;;;;;;;25.73;16.00;;;;;;;15.42;67.36;100856.91;5003897;28;106189;-63
2021/09/07 21:16:40;;;;;;;24.15;16.20;;;;;;;15.40;67.58;100862.47;5004060;28;105936;-63
2021/09/07 21:19:05;;;;;;;25.00;15.30;;;;;;;15.38;67.72;100854.59;5004752;28;105999;-63
2021/09/07 21:21:30;;;;;;;31.45;15.38;;;;;;;15.37;67.89;100862.84;5004118;28;106391;-63
2021/09/07 21:23:56;;;;;;;25.27;15.05;;;;;;;15.35;68.09;100860.34;5004067;28;106354;-63
2021/09/07 21:26:21;;;;;;;25.00;16.20;;;;;;;15.33;67.99;100864.22;5003805;28;106291;-63
2021/09/07 21:28:46;;;;;;;30.58;20.08;;;;;;;15.29;67.87;100866.44;5004807;28;106208;-63
2021/09/07 21:31:12;;;;;;;26.90;15.68;;;;;;;15.26;68.35;100860.63;5004075;28;106222;-62
2021/09/07 21:33:37;;;;;;;26.85;15.35;;;;;;;15.22;68.22;100860.97;5003570;28;106397;-63
2021/09/07 21:36:03;;;;;;;26.30;14.98;;;;;;;15.20;68.58;100863.03;5001746;28;105946;-62
2021/09/07 21:38:28;;;;;;;22.92;14.10;;;;;;;15.18;68.43;100865.03;5004789;28;105847;-63
2021/09/07 21:40:53;;;;;;;26.63;14.57;;;;;;;15.16;68.83;100867.09;5004416;28;106190;-63
2021/09/07 21:43:19;;;;;;;28.40;15.52;;;;;;;15.14;68.78;100863.75;5004069;28;105874;-63
2021/09/07 21:45:44;;;;;;;22.27;15.32;;;;;;;15.14;69.01;100874.47;5003887;28;105744;-62
2021/09/07 21:48:09;;;;;;;25.55;15.60;;;;;;;15.10;69.17;100867.81;4996735;28;105826;-61
2021/09/07 21:50:35;;;;;;;26.27;15.07;;;;;;;15.10;69.09;100872.34;4990702;28;105861;-62
2021/09/07 21:53:00;;;;;;;24.02;15.80;;;;;;;15.10;69.33;100864.31;4990458;28;105944;-63
2021/09/07 21:55:25;;;;;;;25.23;15.57;;;;;;;15.09;69.41;100857.25;4990449;28;106513;-63
2021/09/07 21:57:51;;;;;;;24.35;15.23;;;;;;;15.07;69.28;100871.69;4991275;28;105838;-63
2021/09/07 22:00:16;;;;;;;23.33;15.05;;;;;;;15.05;69.65;100865.69;4990559;28;106168;-63
2021/09/07 22:02:43;;;;;;;27.15;16.27;;;;;;;15.02;69.53;100862.53;4990634;28;105733;-62
2021/09/07 22:05:10;;;;;;;26.73;15.70;;;;;;;14.95;69.75;100865.09;4990436;28;106064;-64